createdAt,value
2023-04-17T00:00:35.815Z,9.12
2023-04-17T00:03:04.516Z,9.14
2023-04-17T00:05:34.026Z,9.14
2023-04-17T00:08:04.850Z,9.12
2023-04-17T00:10:33.331Z,9.10
2023-04-17T00:13:03.859Z,9.11
2023-04-17T00:15:33.268Z,9.16
2023-04-17T00:18:02.709Z,9.19
2023-04-17T00:20:31.378Z,9.15
2023-04-17T00:23:00.045Z,9.14
2023-04-17T00:25:28.424Z,9.13
2023-04-17T00:27:57.418Z,9.19
2023-04-17T00:30:25.908Z,9.21
2023-04-17T00:32:55.782Z,9.20
2023-04-17T00:35:24.813Z,9.15
2023-04-17T00:37:53.194Z,9.12
2023-04-17T00:40:21.885Z,9.13
2023-04-17T00:42:53.541Z,9.13
2023-04-17T00:45:22.507Z,9.09
2023-04-17T00:47:51.050Z,9.04
2023-04-17T00:50:19.323Z,9.04
2023-04-17T00:52:48.799Z,9.07
2023-04-17T00:55:17.617Z,9.06
2023-04-17T00:57:46.381Z,8.97
2023-04-17T01:00:18.493Z,8.95
2023-04-17T01:02:47.574Z,8.93
2023-04-17T01:05:16.431Z,8.92
2023-04-17T01:07:45.236Z,8.90
2023-04-17T01:10:13.601Z,8.86
2023-04-17T01:12:46.819Z,8.82
2023-04-17T01:15:15.785Z,8.83
2023-04-17T01:17:44.211Z,8.80
2023-04-17T01:20:13.810Z,8.73
2023-04-17T01:22:43.285Z,8.68
2023-04-17T01:25:11.657Z,8.67
2023-04-17T01:27:42.394Z,8.69
2023-04-17T01:30:12.149Z,8.68
2023-04-17T01:32:50.433Z,8.65
2023-04-17T01:35:19.004Z,8.64
2023-04-17T01:37:49.126Z,8.65
2023-04-17T01:40:18.733Z,8.63
2023-04-17T01:42:47.212Z,8.64
2023-04-17T01:45:18.154Z,8.64
2023-04-17T01:47:47.624Z,8.75
2023-04-17T01:50:16.245Z,8.76
2023-04-17T01:52:45.549Z,8.67
2023-04-17T01:55:14.432Z,8.66
2023-04-17T01:57:42.933Z,8.64
2023-04-17T02:00:11.850Z,8.62
2023-04-17T02:02:44.665Z,8.55
2023-04-17T02:05:13.176Z,8.46
2023-04-17T02:07:42.990Z,8.45
2023-04-17T02:10:11.784Z,8.47
2023-04-17T02:12:40.892Z,8.47
2023-04-17T02:15:09.948Z,8.46
2023-04-17T02:17:38.621Z,8.46
2023-04-17T02:20:07.766Z,8.51
2023-04-17T02:22:36.957Z,8.49
2023-04-17T02:25:06.053Z,8.45
2023-04-17T02:27:34.536Z,8.44
2023-04-17T02:30:04.038Z,8.48
2023-04-17T02:32:33.966Z,8.48
2023-04-17T02:35:02.843Z,8.46
2023-04-17T02:37:31.739Z,8.49
2023-04-17T02:40:00.214Z,8.52
2023-04-17T02:42:28.909Z,8.51
2023-04-17T02:44:57.291Z,8.53
2023-04-17T02:47:25.981Z,8.54
2023-04-17T02:49:55.992Z,8.59
2023-04-17T02:52:24.373Z,8.60
2023-04-17T02:54:52.900Z,8.53
2023-04-17T02:57:21.335Z,8.46
2023-04-17T02:59:50.527Z,8.51
2023-04-17T03:02:22.352Z,8.52
2023-04-17T03:04:51.535Z,8.48
2023-04-17T03:07:20.903Z,8.44
2023-04-17T03:09:49.593Z,8.46
2023-04-17T03:12:18.579Z,8.45
2023-04-17T03:14:47.064Z,8.42
2023-04-17T03:17:15.643Z,8.39
2023-04-17T03:19:44.146Z,8.42
2023-04-17T03:22:13.435Z,8.42
2023-04-17T03:24:42.318Z,8.41
2023-04-17T03:27:13.775Z,8.42
2023-04-17T03:29:43.179Z,8.46
2023-04-17T03:32:11.760Z,8.47
2023-04-17T03:34:40.550Z,8.39
2023-04-17T03:37:09.029Z,8.45
2023-04-17T03:39:37.523Z,8.48
2023-04-17T03:42:06.811Z,8.51
2023-04-17T03:44:35.397Z,8.50
2023-04-17T03:47:03.777Z,8.49
2023-04-17T03:49:32.156Z,8.52
2023-04-17T03:52:03.913Z,8.52
2023-04-17T03:54:35.954Z,8.51
2023-04-17T03:57:06.202Z,8.53
2023-04-17T03:59:34.885Z,8.59
2023-04-17T04:02:03.372Z,8.61
2023-04-17T04:04:35.409Z,8.62
2023-04-17T04:07:08.623Z,8.64
2023-04-17T04:09:37.312Z,8.67
2023-04-17T04:12:06.104Z,8.65
2023-04-17T04:14:41.784Z,8.66
2023-04-17T04:17:11.052Z,8.73
2023-04-17T04:19:39.731Z,8.77
2023-04-17T04:22:09.033Z,8.75
2023-04-17T04:24:43.048Z,8.76
2023-04-17T04:27:14.358Z,8.80
2023-04-17T04:29:48.918Z,8.81
2023-04-17T04:32:20.930Z,8.77
2023-04-17T04:34:49.464Z,8.80
2023-04-17T04:37:22.062Z,8.86
2023-04-17T04:39:54.402Z,8.88
2023-04-17T04:42:24.234Z,8.89
2023-04-17T04:45:05.110Z,8.93
2023-04-17T04:47:34.003Z,8.96
2023-04-17T04:50:02.664Z,8.97
2023-04-17T04:52:32.187Z,8.97
2023-04-17T04:55:02.151Z,9.00
2023-04-17T04:57:31.714Z,9.03
2023-04-17T05:00:02.026Z,9.05
2023-04-17T05:02:38.002Z,9.03
2023-04-17T05:05:09.810Z,9.05
2023-04-17T05:07:38.650Z,9.07
2023-04-17T05:10:46.681Z,9.09
2023-04-17T05:13:15.958Z,9.10
2023-04-17T05:15:44.548Z,9.13
2023-04-17T05:18:13.639Z,9.15
2023-04-17T05:20:42.528Z,9.15
2023-04-17T05:23:11.017Z,9.22
2023-04-17T05:25:39.394Z,9.30
2023-04-17T05:28:08.287Z,9.32
2023-04-17T05:30:36.714Z,9.32
2023-04-17T05:33:12.845Z,9.34
2023-04-17T05:35:56.003Z,9.44
2023-04-17T05:38:25.672Z,9.46
2023-04-17T05:40:54.256Z,9.47
2023-04-17T05:43:23.244Z,9.44
2023-04-17T05:45:53.961Z,9.44
2023-04-17T05:48:22.322Z,9.43
2023-04-17T05:50:50.941Z,9.41
2023-04-17T05:53:20.251Z,9.38
2023-04-17T05:55:54.871Z,9.32
2023-04-17T05:58:24.489Z,9.32
2023-04-17T06:00:57.176Z,9.29
2023-04-17T06:03:28.161Z,9.25
2023-04-17T06:06:05.817Z,9.21
2023-04-17T06:08:34.421Z,9.16
2023-04-17T06:11:02.689Z,9.24
2023-04-17T06:13:31.556Z,9.23
2023-04-17T06:16:00.147Z,9.22
2023-04-17T06:18:28.521Z,9.23
2023-04-17T06:20:57.100Z,9.28
2023-04-17T06:23:26.411Z,9.23
2023-04-17T06:25:54.731Z,9.25
2023-04-17T06:28:23.267Z,9.21
2023-04-17T06:30:53.087Z,9.23
2023-04-17T06:33:21.567Z,9.25
2023-04-17T06:35:50.148Z,9.28
2023-04-17T06:38:25.415Z,9.30
2023-04-17T06:40:53.974Z,9.32
2023-04-17T06:43:22.764Z,9.40
2023-04-17T06:45:51.327Z,9.46
2023-04-17T06:48:19.932Z,9.48
2023-04-17T06:50:48.688Z,9.50
2023-04-17T06:53:17.099Z,9.52
2023-04-17T06:55:45.690Z,9.59
2023-04-17T06:58:14.269Z,9.62
2023-04-17T07:00:42.643Z,9.59
2023-04-17T07:03:11.639Z,9.55
2023-04-17T07:05:40.047Z,9.53
2023-04-17T07:08:08.603Z,9.56
2023-04-17T07:10:37.695Z,9.59
2023-04-17T07:13:06.305Z,9.60
2023-04-17T07:15:34.788Z,9.61
2023-04-17T07:18:03.428Z,9.60
2023-04-17T07:20:31.942Z,9.65
2023-04-17T07:23:00.313Z,9.67
2023-04-17T07:25:28.902Z,9.66
2023-04-17T07:27:57.685Z,9.64
2023-04-17T07:30:26.403Z,9.62
2023-04-17T07:32:55.094Z,9.61
2023-04-17T07:35:23.750Z,9.65
2023-04-17T07:37:52.231Z,9.71
2023-04-17T07:40:20.604Z,9.75
2023-04-17T07:42:49.186Z,9.80
2023-04-17T07:45:17.668Z,9.87
2023-04-17T07:47:46.730Z,9.97
2023-04-17T07:50:15.763Z,10.08
2023-04-17T07:52:44.136Z,10.16
2023-04-17T07:55:12.517Z,10.25
2023-04-17T07:57:43.968Z,10.35
2023-04-17T08:00:16.474Z,10.43
2023-04-17T08:02:45.029Z,10.48
2023-04-17T08:05:13.548Z,10.50
2023-04-17T08:07:43.634Z,10.54
2023-04-17T08:10:12.012Z,10.56
2023-04-17T08:12:40.587Z,10.54
2023-04-17T08:15:09.825Z,10.54
2023-04-17T08:17:38.577Z,10.56
2023-04-17T08:20:11.654Z,10.59
2023-04-17T08:22:41.222Z,10.61
2023-04-17T08:25:10.473Z,10.61
2023-04-17T08:27:42.627Z,10.60
2023-04-17T08:30:13.868Z,10.59
2023-04-17T08:32:46.762Z,10.61
2023-04-17T08:35:15.771Z,10.70
2023-04-17T08:37:47.224Z,10.82
2023-04-17T08:40:17.442Z,10.96
2023-04-17T08:42:48.251Z,11.08
2023-04-17T08:45:17.592Z,11.17
2023-04-17T08:47:47.430Z,11.22
2023-04-17T08:50:19.563Z,11.28
2023-04-17T08:52:49.177Z,11.41
2023-04-17T08:55:22.472Z,11.53
2023-04-17T08:58:04.287Z,11.63
2023-04-17T09:00:51.282Z,11.72
2023-04-17T09:03:20.089Z,11.83
2023-04-17T09:05:49.399Z,11.95
2023-04-17T09:08:22.448Z,12.08
2023-04-17T09:10:52.100Z,12.22
2023-04-17T09:13:25.562Z,12.41
2023-04-17T09:16:11.113Z,12.59
2023-04-17T09:18:40.473Z,12.57
2023-04-17T09:21:09.244Z,12.82
2023-04-17T09:23:55.652Z,12.94
2023-04-17T09:26:27.632Z,12.99
2023-04-17T09:29:12.356Z,12.99
2023-04-17T09:31:43.073Z,13.06
2023-04-17T09:34:12.898Z,13.08
2023-04-17T09:36:42.303Z,13.09
2023-04-17T09:39:19.349Z,13.09
2023-04-17T09:41:47.783Z,13.06
2023-04-17T09:44:25.888Z,13.11
2023-04-17T09:46:54.602Z,13.26
2023-04-17T09:49:30.543Z,13.38
2023-04-17T09:51:58.921Z,13.45
2023-04-17T09:54:31.607Z,13.47
2023-04-17T09:57:00.207Z,13.44
2023-04-17T09:59:28.828Z,13.38
2023-04-17T10:01:57.533Z,13.35
2023-04-17T10:04:26.395Z,13.35
2023-04-17T10:06:56.972Z,13.50
2023-04-17T10:09:25.360Z,13.77
2023-04-17T10:11:54.148Z,14.15
2023-04-17T10:14:31.004Z,14.53
2023-04-17T10:16:59.291Z,14.89
2023-04-17T10:19:36.805Z,15.12
2023-04-17T10:22:20.501Z,15.30
2023-04-17T10:24:52.183Z,15.47
2023-04-17T10:27:27.274Z,15.59
2023-04-17T10:30:02.884Z,15.81
2023-04-17T10:32:32.154Z,15.87
2023-04-17T10:35:02.251Z,15.88
2023-04-17T10:37:51.891Z,15.88
2023-04-17T10:40:29.615Z,15.94
2023-04-17T10:43:08.590Z,16.02
2023-04-17T10:46:03.564Z,16.17
2023-04-17T10:48:39.369Z,16.22
2023-04-17T10:51:29.436Z,16.15
2023-04-17T10:53:58.226Z,16.14
2023-04-17T10:56:28.064Z,16.21
2023-04-17T10:59:00.315Z,16.28
2023-04-17T11:01:32.462Z,16.35
2023-04-17T11:04:01.025Z,16.29
2023-04-17T11:06:32.061Z,16.15
2023-04-17T11:09:00.517Z,15.98
2023-04-17T11:11:40.447Z,15.81
2023-04-17T11:14:15.783Z,15.65
2023-04-17T11:16:46.224Z,15.50
2023-04-17T11:19:21.705Z,15.39
2023-04-17T11:21:54.211Z,15.38
2023-04-17T11:24:26.936Z,15.43
2023-04-17T11:26:56.833Z,15.51
2023-04-17T11:29:25.623Z,15.57
2023-04-17T11:31:55.046Z,15.57
2023-04-17T11:34:23.608Z,15.59
2023-04-17T11:36:56.898Z,15.60
2023-04-17T11:39:26.675Z,15.62
2023-04-17T11:41:57.328Z,15.53
2023-04-17T11:44:26.142Z,15.37
2023-04-17T11:46:56.024Z,15.15
2023-04-17T11:49:31.300Z,14.90
2023-04-17T11:52:00.801Z,14.63
2023-04-17T11:54:30.840Z,14.40
2023-04-17T11:57:02.719Z,14.15
2023-04-17T11:59:38.665Z,13.92
2023-04-17T12:02:07.692Z,13.75
2023-04-17T12:04:37.848Z,13.67
2023-04-17T12:07:07.574Z,13.65
2023-04-17T12:09:36.774Z,13.63
2023-04-17T12:12:06.685Z,13.65
2023-04-17T12:14:36.297Z,13.72
2023-04-17T12:17:04.670Z,13.82
2023-04-17T12:19:34.085Z,13.91
2023-04-17T12:22:02.567Z,14.02
2023-04-17T12:24:31.061Z,14.14
2023-04-17T12:27:02.059Z,14.28
2023-04-17T12:29:43.278Z,14.39
2023-04-17T12:32:13.119Z,14.54
2023-04-17T12:34:41.557Z,14.65
2023-04-17T12:37:10.240Z,14.77
2023-04-17T12:39:38.831Z,14.81
2023-04-17T12:42:07.206Z,14.78
2023-04-17T12:44:35.907Z,14.76
2023-04-17T12:47:04.371Z,14.82
2023-04-17T12:49:33.176Z,14.92
2023-04-17T12:52:03.557Z,15.02
2023-04-17T12:54:33.352Z,15.11
2023-04-17T12:57:02.589Z,15.18
2023-04-17T12:59:32.314Z,15.17
2023-04-17T13:02:01.454Z,15.13
2023-04-17T13:04:30.344Z,15.14
2023-04-17T13:06:58.890Z,15.16
2023-04-17T13:09:27.265Z,15.14
2023-04-17T13:11:55.644Z,15.12
2023-04-17T13:14:24.232Z,15.08
2023-04-17T13:16:52.831Z,15.05
2023-04-17T13:19:21.420Z,15.02
2023-04-17T13:21:51.521Z,14.95
2023-04-17T13:24:19.901Z,14.98
2023-04-17T13:26:48.379Z,15.01
2023-04-17T13:29:19.277Z,15.07
2023-04-17T13:31:48.937Z,15.12
2023-04-17T13:34:17.412Z,15.07
2023-04-17T13:36:46.800Z,15.01
2023-04-17T13:39:15.392Z,14.95
2023-04-17T13:41:43.799Z,14.93
2023-04-17T13:44:13.839Z,14.97
2023-04-17T13:46:42.232Z,15.03
2023-04-17T13:49:12.088Z,15.02
2023-04-17T13:51:40.900Z,15.02
2023-04-17T13:54:10.411Z,15.06
2023-04-17T13:56:39.489Z,15.08
2023-04-17T13:59:08.275Z,15.04
2023-04-17T14:01:36.945Z,15.01
2023-04-17T14:04:05.438Z,14.99
2023-04-17T14:06:35.272Z,14.99
2023-04-17T14:09:03.744Z,15.00
2023-04-17T14:11:32.431Z,15.01
2023-04-17T14:14:01.018Z,15.03
2023-04-17T14:16:29.836Z,15.05
2023-04-17T14:19:06.407Z,15.07
2023-04-17T14:21:41.831Z,15.10
2023-04-17T14:24:10.306Z,15.16
2023-04-17T14:26:40.092Z,15.24
2023-04-17T14:29:11.056Z,15.29
2023-04-17T14:31:39.614Z,15.26
2023-04-17T14:34:08.025Z,15.22
2023-04-17T14:36:36.508Z,15.26
2023-04-17T14:39:08.577Z,15.26
2023-04-17T14:41:37.216Z,15.26
2023-04-17T14:44:05.870Z,15.28
2023-04-17T14:46:34.646Z,15.28
2023-04-17T14:49:03.536Z,15.23
2023-04-17T14:51:32.546Z,15.17
2023-04-17T14:54:01.441Z,15.11
2023-04-17T14:56:30.207Z,15.05
2023-04-17T14:58:58.691Z,14.97
2023-04-17T15:01:27.140Z,14.92
2023-04-17T15:03:56.146Z,14.85
2023-04-17T15:06:24.754Z,14.79
2023-04-17T15:08:53.341Z,14.71
2023-04-17T15:11:21.825Z,14.64
2023-04-17T15:13:50.510Z,14.61
2023-04-17T15:16:19.053Z,14.55
2023-04-17T15:18:47.577Z,14.47
2023-04-17T15:21:16.572Z,14.42
2023-04-17T15:23:45.157Z,14.37
2023-04-17T15:26:13.763Z,14.25
2023-04-17T15:28:42.338Z,14.21
2023-04-17T15:31:10.716Z,14.15
2023-04-17T15:33:39.206Z,14.10
2023-04-17T15:36:07.683Z,14.05
2023-04-17T15:38:36.570Z,13.99
2023-04-17T15:41:05.672Z,13.92
2023-04-17T15:43:34.051Z,13.87
2023-04-17T15:46:03.732Z,13.81
2023-04-17T15:48:32.347Z,13.75
2023-04-17T15:51:03.079Z,13.70
2023-04-17T15:53:32.046Z,13.65
2023-04-17T15:56:00.968Z,13.60
2023-04-17T15:58:29.754Z,13.54
2023-04-17T16:00:58.237Z,13.48
2023-04-17T16:03:26.970Z,13.42
2023-04-17T16:05:55.614Z,13.37
2023-04-17T16:08:23.993Z,13.32
2023-04-17T16:10:52.678Z,13.26
2023-04-17T16:13:21.572Z,13.20
2023-04-17T16:15:50.815Z,13.15
2023-04-17T16:18:19.252Z,13.11
2023-04-17T16:20:47.735Z,13.08
2023-04-17T16:23:16.216Z,13.04
2023-04-17T16:25:44.708Z,13.01
2023-04-17T16:28:13.076Z,12.98
2023-04-17T16:30:41.560Z,12.91
2023-04-17T16:33:10.046Z,12.90
2023-04-17T16:35:38.732Z,12.86
2023-04-17T16:38:07.229Z,12.82
2023-04-17T16:40:36.105Z,12.78
2023-04-17T16:43:04.484Z,12.72
2023-04-17T16:45:33.169Z,12.66
2023-04-17T16:48:01.687Z,12.59
2023-04-17T16:50:31.056Z,12.55
2023-04-17T16:52:59.643Z,12.49
2023-04-17T16:55:28.121Z,12.44
2023-04-17T16:57:57.629Z,12.40
2023-04-17T17:00:26.521Z,12.37
2023-04-17T17:02:55.121Z,12.33
2023-04-17T17:05:24.527Z,12.28
2023-04-17T17:07:53.303Z,12.22
2023-04-17T17:10:21.575Z,12.16
2023-04-17T17:12:49.960Z,12.11
2023-04-17T17:15:20.723Z,12.05
2023-04-17T17:17:49.839Z,11.98
2023-04-17T17:20:19.398Z,11.93
2023-04-17T17:22:47.791Z,11.89
2023-04-17T17:28:14.745Z,11.84
2023-04-17T17:30:44.163Z,11.79
2023-04-17T17:33:12.714Z,11.74
2023-04-17T17:35:41.218Z,11.70
2023-04-17T17:38:10.949Z,11.67
2023-04-17T17:40:40.548Z,11.64
2023-04-17T17:43:08.962Z,11.62
2023-04-17T17:45:37.316Z,11.61
2023-04-17T17:48:06.293Z,11.60
2023-04-17T17:50:34.883Z,11.59
2023-04-17T17:53:04.312Z,11.55
2023-04-17T17:55:37.688Z,11.53
2023-04-17T17:58:07.037Z,11.51
2023-04-17T18:00:36.182Z,11.50
2023-04-17T18:03:04.839Z,11.48
2023-04-17T18:05:33.974Z,11.45
2023-04-17T18:08:02.559Z,11.43
2023-04-17T18:10:33.693Z,11.40
2023-04-17T18:13:03.445Z,11.39
2023-04-17T18:15:31.825Z,11.37
2023-04-17T18:18:00.766Z,11.37
2023-04-17T18:20:29.367Z,11.37
2023-04-17T18:22:58.061Z,11.36
2023-04-17T18:25:26.637Z,11.36
2023-04-17T18:27:54.917Z,11.36
2023-04-17T18:30:23.293Z,11.36
2023-04-17T18:32:52.054Z,11.36
2023-04-17T18:35:20.675Z,11.35
2023-04-17T18:37:49.159Z,11.34
2023-04-17T18:40:17.738Z,11.33
2023-04-17T18:42:46.217Z,11.32
2023-04-17T18:45:16.261Z,11.31
2023-04-17T18:47:44.855Z,11.28
2023-04-17T18:50:13.311Z,11.27
2023-04-17T18:52:45.074Z,11.25
2023-04-17T18:55:17.857Z,11.23
2023-04-17T18:57:47.051Z,11.21
2023-04-17T19:00:16.141Z,11.21
2023-04-17T19:02:44.943Z,11.14
2023-04-17T19:05:13.899Z,11.18
2023-04-17T19:07:42.405Z,11.17
2023-04-17T19:10:11.399Z,11.17
2023-04-17T19:12:39.800Z,11.17
2023-04-17T19:15:10.049Z,11.15
2023-04-17T19:17:38.644Z,11.15
2023-04-17T19:20:08.068Z,11.09
2023-04-17T19:22:36.680Z,11.05
2023-04-17T19:25:05.775Z,11.07
2023-04-17T19:27:35.200Z,11.07
2023-04-17T19:30:04.392Z,11.08
2023-04-17T19:32:33.379Z,11.06
2023-04-17T19:35:01.918Z,11.06
2023-04-17T19:37:30.740Z,11.05
2023-04-17T19:39:59.325Z,11.05
2023-04-17T19:42:29.166Z,11.04
2023-04-17T19:44:57.516Z,11.03
2023-04-17T19:47:26.383Z,11.01
2023-04-17T19:49:54.994Z,11.00
2023-04-17T19:52:23.881Z,10.98
2023-04-17T19:54:52.264Z,10.96
2023-04-17T19:57:20.646Z,10.93
2023-04-17T19:59:49.018Z,10.88
2023-04-17T20:02:21.535Z,10.87
2023-04-17T20:04:49.993Z,10.85
2023-04-17T20:07:18.357Z,10.81
2023-04-17T20:09:46.741Z,10.80
2023-04-17T20:12:15.118Z,10.77
2023-04-17T20:14:43.598Z,10.72
2023-04-17T20:17:12.113Z,10.69
2023-04-17T20:19:41.174Z,10.66
2023-04-17T20:22:09.656Z,10.63
2023-04-17T20:24:38.047Z,10.61
2023-04-17T20:27:06.929Z,10.58
2023-04-17T20:29:35.617Z,10.56
2023-04-17T20:32:04.204Z,10.54
2023-04-17T20:34:35.344Z,10.52
2023-04-17T20:37:03.721Z,10.50
2023-04-17T20:39:32.817Z,10.49
2023-04-17T20:42:02.228Z,10.47
2023-04-17T20:44:32.240Z,10.44
2023-04-17T20:47:01.129Z,10.42
2023-04-17T20:49:30.221Z,10.39
2023-04-17T20:51:59.628Z,10.37
2023-04-17T20:54:28.725Z,10.36
2023-04-17T20:56:57.411Z,10.34
2023-04-17T20:59:26.102Z,10.32
2023-04-17T21:01:54.659Z,10.31
2023-04-17T21:04:23.368Z,10.30
2023-04-17T21:06:52.055Z,10.28
2023-04-17T21:09:20.741Z,10.27
2023-04-17T21:11:49.937Z,10.27
2023-04-17T21:14:19.038Z,10.27
2023-04-17T21:16:47.415Z,10.25
2023-04-17T21:19:15.907Z,10.23
2023-04-17T21:21:44.289Z,10.22
2023-04-17T21:24:12.948Z,10.20
2023-04-17T21:26:41.549Z,10.18
2023-04-17T21:29:09.927Z,10.18
2023-04-17T21:31:38.595Z,10.17
2023-04-17T21:34:07.108Z,10.17
2023-04-17T21:36:35.683Z,10.15
2023-04-17T21:39:04.054Z,10.12
2023-04-17T21:41:32.641Z,10.10
2023-04-17T21:44:02.871Z,10.08
2023-04-17T21:46:32.167Z,10.06
2023-04-17T21:49:01.165Z,10.03
2023-04-17T21:51:29.641Z,10.02
2023-04-17T21:53:58.028Z,9.98
2023-04-17T21:56:26.515Z,9.94
2023-04-17T21:58:54.881Z,9.92
2023-04-17T22:01:23.760Z,9.89
2023-04-17T22:03:52.680Z,9.88
2023-04-17T22:06:21.048Z,9.87
2023-04-17T22:08:49.427Z,9.85
2023-04-17T22:11:18.019Z,9.84
2023-04-17T22:13:47.311Z,9.82
2023-04-17T22:16:16.146Z,9.82
2023-04-17T22:18:44.598Z,9.79
2023-04-17T22:21:13.430Z,9.77
2023-04-17T22:23:41.756Z,9.75
2023-04-17T22:26:10.090Z,9.73
2023-04-17T22:28:39.846Z,9.72
2023-04-17T22:31:08.389Z,9.69
2023-04-17T22:33:36.810Z,9.67
2023-04-17T22:36:05.495Z,9.64
2023-04-17T22:38:34.080Z,9.63
2023-04-17T22:41:04.096Z,9.63
2023-04-17T22:43:33.093Z,9.63
2023-04-17T22:46:01.832Z,9.61
2023-04-17T22:48:30.463Z,9.60
2023-04-17T22:50:58.846Z,9.59
2023-04-17T22:53:27.940Z,9.58
2023-04-17T22:56:03.205Z,9.56
2023-04-17T22:58:33.183Z,9.52
2023-04-17T23:01:01.583Z,9.51
2023-04-17T23:03:30.414Z,9.50
2023-04-17T23:05:58.744Z,9.48
2023-04-17T23:08:27.854Z,9.47
2023-04-17T23:10:59.292Z,9.46
2023-04-17T23:13:28.198Z,9.45
2023-04-17T23:15:56.619Z,9.44
2023-04-17T23:18:25.254Z,9.42
2023-04-17T23:20:53.841Z,9.41
2023-04-17T23:23:22.525Z,9.39
2023-04-17T23:25:51.412Z,9.37
2023-04-17T23:28:20.204Z,9.34
2023-04-17T23:30:48.589Z,9.32
2023-04-17T23:33:17.372Z,9.30
2023-04-17T23:35:45.855Z,9.28
2023-04-17T23:38:14.349Z,9.27
2023-04-17T23:40:42.926Z,9.26
2023-04-17T23:43:11.205Z,9.24
2023-04-17T23:45:39.790Z,9.23
2023-04-17T23:48:08.483Z,9.21
2023-04-17T23:50:36.860Z,9.20
2023-04-17T23:53:07.189Z,9.18
2023-04-17T23:55:35.566Z,9.15
2023-04-17T23:58:03.945Z,9.12
